createdAt,value
2019-05-10T00:09:57.656Z,12.70
2019-05-10T00:20:03.502Z,12.60
2019-05-10T00:30:10.350Z,12.60
2019-05-10T00:40:15.963Z,12.40
2019-05-10T00:50:21.284Z,12.40
2019-05-10T01:00:26.597Z,12.20
2019-05-10T01:10:31.968Z,12.20
2019-05-10T01:20:37.370Z,12.20
2019-05-10T01:30:42.734Z,12.20
2019-05-10T01:40:48.164Z,12.10
2019-05-10T01:50:53.698Z,12.20
2019-05-10T02:00:59.068Z,12.10
2019-05-10T02:11:04.398Z,12.00
2019-05-10T02:21:09.750Z,12.00
2019-05-10T02:31:15.008Z,12.00
2019-05-10T02:41:20.348Z,12.00
2019-05-10T02:51:25.711Z,12.00
2019-05-10T03:01:31.195Z,11.90
2019-05-10T03:11:47.684Z,11.80
2019-05-10T03:22:06.397Z,11.80
2019-05-10T03:32:11.946Z,12.40
2019-05-10T03:42:17.444Z,12.00
2019-05-10T03:52:22.923Z,12.10
2019-05-10T04:02:28.407Z,12.30
2019-05-10T04:12:33.764Z,12.50
2019-05-10T04:22:39.141Z,12.70
2019-05-10T04:32:45.115Z,12.80
2019-05-10T04:42:50.429Z,13.10
2019-05-10T04:52:58.489Z,13.20
2019-05-10T05:03:03.992Z,13.30
2019-05-10T05:13:09.260Z,13.60
2019-05-10T05:23:14.540Z,13.90
2019-05-10T05:33:19.870Z,14.00
2019-05-10T05:43:25.446Z,14.30
2019-05-10T05:53:35.956Z,14.20
2019-05-10T06:03:37.813Z,13.90
2019-05-10T06:13:43.296Z,14.50
2019-05-10T06:23:48.609Z,15.20
2019-05-10T06:33:54.501Z,15.90
2019-05-10T06:43:59.853Z,16.50
2019-05-10T06:54:05.301Z,16.70
2019-05-10T07:04:10.721Z,16.40
2019-05-10T07:14:17.489Z,17.60
2019-05-10T07:24:25.339Z,18.00
2019-05-10T07:34:29.963Z,17.50
2019-05-10T07:44:35.291Z,17.30
2019-05-10T07:54:45.066Z,17.40
2019-05-10T08:04:50.561Z,17.40
2019-05-10T08:14:54.379Z,17.60
2019-05-10T08:25:02.214Z,16.70
2019-05-10T08:35:15.977Z,16.90
2019-05-10T08:45:14.325Z,17.00
2019-05-10T08:55:22.534Z,16.50
2019-05-10T09:05:29.147Z,15.80
2019-05-10T09:15:34.549Z,16.00
2019-05-10T09:25:42.401Z,15.90
2019-05-10T09:35:51.839Z,15.90
2019-05-10T09:45:54.096Z,16.00
2019-05-10T09:56:02.896Z,16.40
2019-05-10T10:06:10.282Z,16.40
2019-05-10T10:16:14.898Z,16.40
2019-05-10T10:26:22.357Z,16.50
2019-05-10T10:36:27.848Z,16.50
2019-05-10T10:46:34.643Z,17.00
2019-05-10T10:56:40.341Z,17.50
2019-05-10T11:06:45.690Z,17.10
2019-05-10T11:16:52.938Z,16.70
2019-05-10T11:27:00.949Z,16.30
2019-05-10T11:37:05.466Z,16.10
2019-05-10T11:47:23.387Z,16.10
2019-05-10T11:57:18.219Z,16.40
2019-05-10T12:07:33.850Z,16.50
2019-05-10T12:17:30.942Z,16.50
2019-05-10T12:27:45.112Z,17.00
2019-05-10T12:37:46.529Z,17.80
2019-05-10T12:47:52.005Z,18.50
2019-05-10T12:57:57.388Z,18.40
2019-05-10T13:08:02.819Z,18.50
2019-05-10T13:18:08.296Z,18.40
2019-05-10T13:28:13.541Z,18.20
2019-05-10T13:38:18.914Z,17.80
2019-05-10T13:48:26.322Z,17.20
2019-05-10T13:58:31.464Z,17.00
2019-05-10T14:08:36.775Z,17.00
2019-05-10T14:18:42.420Z,17.30
2019-05-10T14:28:52.960Z,17.50
2019-05-10T14:38:56.373Z,17.50
2019-05-10T14:49:08.741Z,17.10
2019-05-10T14:59:09.001Z,17.00
2019-05-10T15:09:21.609Z,17.00
2019-05-10T15:19:25.869Z,17.20
2019-05-10T15:29:32.585Z,17.20
2019-05-10T15:39:38.045Z,17.10
2019-05-10T15:49:43.678Z,17.10
2019-05-10T15:59:50.599Z,17.00
2019-05-10T16:09:56.291Z,17.00
2019-05-10T16:20:01.744Z,17.00
2019-05-10T16:30:12.153Z,16.70
2019-05-10T16:40:14.984Z,16.60
2019-05-10T16:50:20.523Z,16.40
2019-05-10T17:00:26.890Z,16.20
2019-05-10T17:10:34.496Z,16.00
2019-05-10T17:20:39.980Z,15.90
2019-05-10T17:30:45.318Z,15.20
2019-05-10T17:40:50.691Z,15.40
2019-05-10T17:50:56.214Z,15.10
2019-05-10T18:01:01.650Z,14.90
2019-05-10T18:11:07.009Z,14.70
2019-05-10T18:21:15.889Z,14.40
2019-05-10T18:31:19.444Z,14.10
2019-05-10T18:41:24.740Z,13.80
2019-05-10T18:51:30.191Z,13.70
2019-05-10T19:01:38.832Z,13.50
2019-05-10T19:11:43.213Z,13.40
2019-05-10T19:21:48.762Z,13.30
2019-05-10T19:31:54.036Z,13.30
2019-05-10T19:42:03.869Z,13.20
2019-05-10T19:52:06.567Z,13.20
2019-05-10T20:02:12.102Z,13.30
2019-05-10T20:12:17.842Z,13.20
2019-05-10T20:22:23.257Z,13.20
2019-05-10T20:32:29.199Z,13.10
2019-05-10T20:42:34.656Z,13.00
2019-05-10T20:52:40.008Z,13.00
2019-05-10T21:02:45.324Z,13.10
2019-05-10T21:12:51.595Z,13.40
2019-05-10T21:22:57.037Z,13.70
2019-05-10T21:33:02.374Z,13.80
2019-05-10T21:43:07.752Z,13.80
2019-05-10T21:53:13.103Z,13.60
2019-05-10T22:03:18.599Z,13.40
2019-05-10T22:13:23.984Z,13.30
2019-05-10T22:23:29.320Z,13.10
2019-05-10T22:33:34.849Z,13.00
2019-05-10T22:43:40.337Z,12.90
2019-05-10T22:53:58.604Z,13.00
2019-05-10T23:03:54.619Z,13.00
2019-05-10T23:13:59.923Z,13.10
2019-05-10T23:24:08.076Z,13.20
2019-05-10T23:34:13.395Z,13.40
2019-05-10T23:44:18.691Z,13.50
2019-05-10T23:54:24.071Z,13.50
